createdAt,value
2023-03-26T00:00:23.500Z,81.72
2023-03-26T00:03:18.003Z,81.71
2023-03-26T00:06:08.635Z,81.53
2023-03-26T00:08:47.011Z,81.61
2023-03-26T00:11:31.100Z,81.76
2023-03-26T00:14:07.018Z,81.92
2023-03-26T00:16:43.545Z,82.12
2023-03-26T00:19:28.067Z,82.10
2023-03-26T00:22:00.693Z,81.95
2023-03-26T00:24:37.640Z,81.94
2023-03-26T00:27:12.396Z,81.47
2023-03-26T00:29:45.127Z,81.17
2023-03-26T00:32:21.059Z,80.65
2023-03-26T00:34:54.345Z,79.24
2023-03-26T00:37:30.438Z,78.87
2023-03-26T00:40:07.038Z,78.50
2023-03-26T00:42:40.254Z,77.81
2023-03-26T00:45:17.245Z,78.17
2023-03-26T00:47:51.855Z,77.94
2023-03-26T00:50:25.279Z,78.05
2023-03-26T00:53:08.868Z,78.75
2023-03-26T00:55:41.765Z,79.68
2023-03-26T00:58:18.109Z,80.69
2023-03-26T01:00:57.483Z,81.45
2023-03-26T01:03:36.450Z,81.81
2023-03-26T01:06:27.839Z,82.25
2023-03-26T01:09:06.445Z,82.42
2023-03-26T01:11:39.296Z,82.67
2023-03-26T01:14:19.114Z,82.64
2023-03-26T01:16:55.151Z,83.01
2023-03-26T01:19:38.154Z,83.87
2023-03-26T01:22:14.824Z,83.64
2023-03-26T01:24:53.421Z,83.41
2023-03-26T01:27:39.085Z,83.43
2023-03-26T01:30:24.343Z,83.32
2023-03-26T01:33:14.068Z,82.91
2023-03-26T01:36:00.459Z,82.77
2023-03-26T01:38:48.428Z,82.56
2023-03-26T01:41:31.761Z,82.42
2023-03-26T01:44:22.760Z,82.46
2023-03-26T01:47:01.194Z,82.51
2023-03-26T01:49:35.120Z,82.22
2023-03-26T01:52:14.341Z,82.73
2023-03-26T01:54:47.346Z,82.65
2023-03-26T01:57:34.144Z,82.83
2023-03-26T02:00:26.453Z,83.08
2023-03-26T02:03:23.555Z,83.25
2023-03-26T02:06:05.448Z,83.46
2023-03-26T02:09:04.580Z,83.26
2023-03-26T02:11:50.189Z,83.04
2023-03-26T02:14:26.327Z,82.76
2023-03-26T02:17:03.011Z,82.58
2023-03-26T02:19:45.353Z,82.22
2023-03-26T02:22:18.241Z,81.84
2023-03-26T02:24:51.617Z,81.50
2023-03-26T02:27:25.930Z,81.35
2023-03-26T02:30:02.523Z,81.30
2023-03-26T02:32:36.969Z,81.38
2023-03-26T02:35:14.665Z,81.17
2023-03-26T02:37:51.245Z,80.66
2023-03-26T02:40:25.624Z,80.91
2023-03-26T02:43:00.924Z,80.58
2023-03-26T02:45:47.531Z,80.30
2023-03-26T02:48:38.964Z,80.48
2023-03-26T02:51:20.279Z,80.13
2023-03-26T02:54:08.090Z,80.30
2023-03-26T02:56:41.104Z,80.30
2023-03-26T02:59:24.488Z,80.28
2023-03-26T03:02:15.028Z,80.29
2023-03-26T03:04:48.465Z,80.48
2023-03-26T03:07:24.702Z,80.40
2023-03-26T03:10:03.480Z,80.36
2023-03-26T03:12:56.364Z,80.53
2023-03-26T03:15:31.768Z,80.31
2023-03-26T03:18:07.563Z,80.50
2023-03-26T03:20:40.673Z,80.48
2023-03-26T03:23:13.558Z,80.43
2023-03-26T03:25:52.994Z,80.47
2023-03-26T03:28:26.767Z,80.55
2023-03-26T03:31:01.898Z,80.39
2023-03-26T03:33:38.618Z,80.42
2023-03-26T03:36:20.964Z,80.34
2023-03-26T03:39:02.952Z,80.23
2023-03-26T03:41:36.093Z,80.33
2023-03-26T03:44:12.277Z,80.30
2023-03-26T03:46:45.352Z,80.34
2023-03-26T03:49:18.178Z,80.41
2023-03-26T03:51:52.561Z,80.20
2023-03-26T03:54:32.101Z,80.08
2023-03-26T03:57:33.593Z,79.82
2023-03-26T04:00:13.148Z,79.58
2023-03-26T04:02:48.614Z,79.65
2023-03-26T04:05:22.539Z,79.28
2023-03-26T04:08:00.122Z,79.34
2023-03-26T04:10:32.994Z,79.23
2023-03-26T04:13:26.154Z,78.88
2023-03-26T04:16:10.865Z,78.87
2023-03-26T04:18:45.268Z,78.95
2023-03-26T04:21:30.483Z,78.89
2023-03-26T04:24:03.442Z,78.89
2023-03-26T04:27:01.177Z,79.04
2023-03-26T04:29:45.761Z,79.16
2023-03-26T04:32:30.261Z,79.19
2023-03-26T04:35:07.540Z,79.11
2023-03-26T04:37:53.164Z,79.24
2023-03-26T04:40:34.905Z,79.28
2023-03-26T04:43:20.110Z,79.01
2023-03-26T04:46:12.433Z,78.96
2023-03-26T04:48:55.369Z,78.85
2023-03-26T04:51:38.788Z,78.98
2023-03-26T04:54:21.730Z,78.78
2023-03-26T04:57:04.345Z,78.91
2023-03-26T05:00:01.306Z,78.63
2023-03-26T05:02:56.439Z,78.65
2023-03-26T05:05:50.872Z,78.43
2023-03-26T05:08:33.663Z,78.38
2023-03-26T05:11:28.029Z,78.35
2023-03-26T05:14:21.597Z,78.37
2023-03-26T05:17:11.913Z,78.34
2023-03-26T05:20:05.321Z,78.21
2023-03-26T05:23:00.494Z,78.09
2023-03-26T05:25:52.313Z,78.16
2023-03-26T05:28:46.012Z,77.91
2023-03-26T05:31:41.494Z,77.87
2023-03-26T05:34:36.233Z,77.60
2023-03-26T05:37:31.191Z,77.86
2023-03-26T05:40:25.194Z,77.65
2023-03-26T05:43:11.794Z,77.65
2023-03-26T05:46:13.813Z,77.67
2023-03-26T05:49:07.082Z,77.83
2023-03-26T05:52:00.603Z,77.80
2023-03-26T05:54:57.229Z,78.13
2023-03-26T05:58:08.404Z,77.48
2023-03-26T06:01:05.896Z,77.71
2023-03-26T06:03:59.092Z,77.44
2023-03-26T06:06:45.230Z,76.88
2023-03-26T06:09:18.746Z,76.62
2023-03-26T06:12:12.845Z,76.09
2023-03-26T06:14:50.173Z,75.66
2023-03-26T06:17:31.847Z,75.52
2023-03-26T06:20:15.731Z,75.33
2023-03-26T06:23:09.237Z,74.07
2023-03-26T06:25:58.129Z,73.04
2023-03-26T06:29:04.771Z,71.68
2023-03-26T06:32:16.639Z,71.13
2023-03-26T06:34:56.465Z,69.54
2023-03-26T06:37:39.537Z,68.60
2023-03-26T06:40:32.485Z,69.01
2023-03-26T06:43:27.162Z,69.50
2023-03-26T06:46:21.495Z,69.19
2023-03-26T06:49:32.462Z,69.16
2023-03-26T06:52:28.726Z,68.78
2023-03-26T06:55:20.454Z,67.60
2023-03-26T06:58:16.856Z,67.49
2023-03-26T07:01:08.933Z,68.12
2023-03-26T07:04:01.170Z,67.73
2023-03-26T07:06:52.683Z,67.51
2023-03-26T07:09:45.011Z,67.39
2023-03-26T07:12:48.864Z,67.73
2023-03-26T07:15:41.091Z,67.60
2023-03-26T07:18:36.526Z,67.82
2023-03-26T07:21:23.081Z,68.01
2023-03-26T07:24:18.351Z,67.23
2023-03-26T07:27:19.554Z,66.59
2023-03-26T07:30:22.849Z,66.82
2023-03-26T07:33:15.763Z,66.24
2023-03-26T07:36:25.667Z,64.42
2023-03-26T07:39:32.518Z,63.72
2023-03-26T07:42:58.294Z,63.78
2023-03-26T07:45:50.763Z,61.92
2023-03-26T07:48:48.023Z,62.84
2023-03-26T07:51:42.176Z,62.95
2023-03-26T07:54:31.049Z,61.17
2023-03-26T07:57:35.000Z,61.84
2023-03-26T08:00:32.144Z,62.47
2023-03-26T08:03:44.044Z,60.08
2023-03-26T08:06:39.680Z,60.59
2023-03-26T08:10:03.335Z,61.14
2023-03-26T08:12:59.304Z,61.17
2023-03-26T08:15:39.347Z,59.51
2023-03-26T08:18:29.023Z,59.61
2023-03-26T08:21:10.052Z,59.63
2023-03-26T08:23:57.807Z,58.02
2023-03-26T08:26:44.490Z,57.05
2023-03-26T08:29:28.125Z,56.33
2023-03-26T08:32:01.804Z,55.82
2023-03-26T08:34:37.325Z,55.95
2023-03-26T08:37:30.376Z,55.94
2023-03-26T08:40:03.369Z,56.04
2023-03-26T08:43:14.992Z,56.25
2023-03-26T08:46:10.527Z,57.61
2023-03-26T08:49:31.982Z,58.25
2023-03-26T08:52:38.436Z,58.50
2023-03-26T08:55:36.776Z,59.15
2023-03-26T08:59:04.966Z,61.09
2023-03-26T09:02:32.465Z,61.50
2023-03-26T09:05:54.904Z,62.56
2023-03-26T09:09:21.284Z,63.09
2023-03-26T09:12:21.165Z,63.25
2023-03-26T09:15:17.506Z,61.29
2023-03-26T09:18:21.396Z,61.62
2023-03-26T09:21:30.152Z,61.32
2023-03-26T09:24:44.025Z,61.05
2023-03-26T09:27:38.332Z,61.39
2023-03-26T09:30:53.505Z,62.03
2023-03-26T09:34:11.606Z,60.67
2023-03-26T09:37:27.899Z,61.21
2023-03-26T09:40:27.043Z,60.66
2023-03-26T09:43:44.101Z,59.79
2023-03-26T09:46:48.842Z,60.38
2023-03-26T09:49:46.401Z,60.97
2023-03-26T09:52:52.342Z,60.96
2023-03-26T09:55:56.782Z,60.69
2023-03-26T09:59:12.845Z,58.90
2023-03-26T10:02:45.437Z,58.20
2023-03-26T10:05:59.150Z,56.50
2023-03-26T10:09:12.461Z,55.90
2023-03-26T10:12:10.023Z,53.23
2023-03-26T10:14:48.929Z,51.90
2023-03-26T10:17:39.074Z,51.82
2023-03-26T10:20:45.400Z,51.39
2023-03-26T10:23:53.021Z,51.09
2023-03-26T10:27:09.330Z,51.63
2023-03-26T10:30:29.578Z,52.65
2023-03-26T10:33:32.087Z,53.00
2023-03-26T10:36:32.713Z,53.94
2023-03-26T10:39:44.912Z,55.44
2023-03-26T10:42:43.377Z,56.62
2023-03-26T10:45:33.313Z,57.61
2023-03-26T10:48:36.516Z,57.30
2023-03-26T10:51:51.310Z,56.76
2023-03-26T10:54:39.784Z,57.56
2023-03-26T10:57:27.542Z,57.27
2023-03-26T11:00:26.527Z,56.26
2023-03-26T11:03:22.246Z,55.43
2023-03-26T11:06:06.416Z,55.36
2023-03-26T11:08:48.307Z,54.95
2023-03-26T11:11:27.415Z,54.07
2023-03-26T11:14:13.681Z,55.14
2023-03-26T11:17:02.436Z,55.08
2023-03-26T11:19:44.021Z,55.13
2023-03-26T11:22:36.171Z,54.29
2023-03-26T11:25:31.662Z,53.71
2023-03-26T11:28:18.087Z,52.75
2023-03-26T11:31:00.596Z,53.09
2023-03-26T11:33:45.486Z,53.33
2023-03-26T11:36:32.767Z,53.08
2023-03-26T11:39:10.665Z,52.99
2023-03-26T11:42:00.509Z,52.96
2023-03-26T11:44:48.466Z,52.87
2023-03-26T11:47:26.816Z,52.80
2023-03-26T11:50:04.928Z,53.20
2023-03-26T11:52:37.754Z,52.61
2023-03-26T11:55:15.931Z,52.37
2023-03-26T11:57:55.462Z,51.58
2023-03-26T12:00:48.872Z,50.60
2023-03-26T12:03:38.463Z,49.97
2023-03-26T12:06:27.576Z,49.03
2023-03-26T12:09:03.947Z,49.53
2023-03-26T12:11:41.805Z,49.48
2023-03-26T12:14:20.520Z,47.55
2023-03-26T12:17:05.131Z,47.75
2023-03-26T12:19:58.150Z,47.69
2023-03-26T12:22:43.610Z,47.23
2023-03-26T12:25:24.659Z,46.06
2023-03-26T12:28:22.691Z,46.07
2023-03-26T12:31:18.373Z,44.83
2023-03-26T12:34:15.748Z,44.72
2023-03-26T12:37:03.756Z,45.97
2023-03-26T12:40:06.717Z,45.63
2023-03-26T12:44:44.921Z,43.91
2023-03-26T12:45:44.538Z,43.32
2023-03-26T12:48:21.329Z,43.85
2023-03-26T12:51:06.717Z,44.01
2023-03-26T12:54:10.029Z,44.49
2023-03-26T12:57:12.101Z,45.50
2023-03-26T13:00:27.000Z,44.97
2023-03-26T13:03:27.545Z,45.65
2023-03-26T13:06:16.698Z,45.11
2023-03-26T13:09:19.747Z,44.15
2023-03-26T13:12:07.397Z,43.81
2023-03-26T13:15:09.763Z,43.61
2023-03-26T13:18:20.523Z,44.00
2023-03-26T13:21:06.238Z,44.91
2023-03-26T13:24:00.858Z,45.33
2023-03-26T13:26:49.260Z,44.82
2023-03-26T13:29:33.803Z,44.45
2023-03-26T13:32:17.304Z,44.97
2023-03-26T13:35:08.941Z,45.33
2023-03-26T13:38:12.987Z,45.51
2023-03-26T13:40:58.829Z,46.94
2023-03-26T13:43:50.910Z,46.25
2023-03-26T13:46:32.226Z,44.76
2023-03-26T13:49:16.625Z,44.76
2023-03-26T13:51:57.379Z,45.18
2023-03-26T13:54:55.970Z,45.57
2023-03-26T13:57:39.492Z,45.63
2023-03-26T14:00:26.727Z,45.94
2023-03-26T14:03:04.116Z,46.13
2023-03-26T14:05:49.815Z,45.42
2023-03-26T14:08:37.521Z,45.18
2023-03-26T14:11:14.427Z,45.56
2023-03-26T14:14:04.083Z,45.18
2023-03-26T14:16:52.790Z,45.30
2023-03-26T14:20:13.400Z,45.45
2023-03-26T14:23:18.433Z,45.10
2023-03-26T14:25:57.289Z,44.69
2023-03-26T14:29:05.758Z,45.08
2023-03-26T14:31:44.563Z,44.99
2023-03-26T14:34:43.132Z,45.55
2023-03-26T14:37:42.029Z,45.29
2023-03-26T14:40:52.543Z,46.10
2023-03-26T14:43:54.038Z,46.43
2023-03-26T14:46:43.272Z,46.34
2023-03-26T14:49:53.824Z,47.23
2023-03-26T14:52:38.430Z,47.05
2023-03-26T14:55:18.605Z,46.60
2023-03-26T14:58:36.202Z,48.16
2023-03-26T15:01:26.856Z,49.86
2023-03-26T15:04:36.607Z,51.22
2023-03-26T15:07:31.361Z,52.28
2023-03-26T15:10:59.026Z,52.58
2023-03-26T15:13:57.141Z,52.51
2023-03-26T15:17:13.451Z,52.43
2023-03-26T15:20:52.057Z,53.04
2023-03-26T15:24:19.643Z,53.63
2023-03-26T15:27:52.078Z,54.25
2023-03-26T15:31:18.775Z,54.62
2023-03-26T15:34:27.640Z,55.31
2023-03-26T15:37:31.984Z,55.52
2023-03-26T15:40:32.220Z,55.92
2023-03-26T15:43:33.558Z,56.29
2023-03-26T15:46:33.950Z,56.76
2023-03-26T15:49:16.583Z,57.20
2023-03-26T15:52:22.386Z,57.64
2023-03-26T15:55:04.371Z,58.04
2023-03-26T15:58:02.183Z,58.56
2023-03-26T16:00:40.638Z,58.96
2023-03-26T16:03:43.242Z,59.32
2023-03-26T16:06:48.911Z,59.61
2023-03-26T16:09:48.334Z,60.36
2023-03-26T16:12:46.310Z,60.65
2023-03-26T16:15:39.915Z,61.10
2023-03-26T16:18:29.910Z,61.41
2023-03-26T16:21:47.704Z,61.68
2023-03-26T16:24:34.781Z,61.74
2023-03-26T16:27:32.262Z,61.93
2023-03-26T16:30:34.105Z,62.16
2023-03-26T16:33:17.967Z,62.23
2023-03-26T16:36:06.650Z,62.27
2023-03-26T16:39:18.864Z,62.32
2023-03-26T16:42:05.928Z,62.47
2023-03-26T16:44:50.167Z,62.53
2023-03-26T16:47:34.034Z,62.59
2023-03-26T16:50:18.907Z,62.91
2023-03-26T16:53:01.015Z,63.30
2023-03-26T16:55:43.919Z,63.34
2023-03-26T16:58:31.110Z,63.42
2023-03-26T17:01:21.406Z,63.86
2023-03-26T17:04:04.346Z,64.45
2023-03-26T17:07:02.213Z,65.13
2023-03-26T17:09:51.737Z,65.31
2023-03-26T17:12:34.187Z,65.66
2023-03-26T17:15:32.236Z,66.18
2023-03-26T17:18:25.949Z,66.63
2023-03-26T17:21:07.712Z,67.13
2023-03-26T17:24:01.492Z,67.33
2023-03-26T17:26:45.545Z,67.68
2023-03-26T17:29:31.330Z,68.02
2023-03-26T17:32:09.289Z,68.83
2023-03-26T17:35:00.780Z,69.21
2023-03-26T17:37:49.994Z,69.13
2023-03-26T17:40:55.187Z,69.56
2023-03-26T17:43:46.934Z,69.91
2023-03-26T17:46:38.618Z,70.25
2023-03-26T17:49:20.470Z,70.75
2023-03-26T17:52:26.869Z,71.35
2023-03-26T17:55:04.551Z,71.42
2023-03-26T17:57:52.376Z,71.50
2023-03-26T18:00:32.670Z,71.52
2023-03-26T18:03:21.308Z,71.81
2023-03-26T18:06:00.923Z,72.02
2023-03-26T18:09:08.578Z,72.48
2023-03-26T18:12:12.186Z,72.77
2023-03-26T18:15:23.450Z,73.00
2023-03-26T18:18:04.098Z,72.91
2023-03-26T18:20:39.282Z,72.94
2023-03-26T18:23:31.189Z,73.10
2023-03-26T18:26:17.652Z,73.33
2023-03-26T18:29:24.186Z,73.45
2023-03-26T18:32:02.730Z,73.71
2023-03-26T18:35:01.047Z,73.57
2023-03-26T18:37:47.658Z,73.68
2023-03-26T18:40:22.245Z,73.97
2023-03-26T18:43:02.860Z,74.03
2023-03-26T18:45:38.812Z,74.00
2023-03-26T18:48:20.489Z,74.02
2023-03-26T18:51:16.074Z,74.17
2023-03-26T18:54:01.873Z,76.49
2023-03-26T18:56:40.344Z,78.09
2023-03-26T18:59:28.278Z,78.30
2023-03-26T19:02:07.465Z,78.18
2023-03-26T19:04:46.168Z,78.29
2023-03-26T19:07:42.910Z,78.55
2023-03-26T19:10:22.235Z,78.52
2023-03-26T19:13:03.262Z,78.34
2023-03-26T19:15:57.870Z,78.20
2023-03-26T19:18:43.999Z,77.95
2023-03-26T19:21:23.346Z,77.67
2023-03-26T19:24:08.061Z,77.22
2023-03-26T19:27:01.331Z,77.13
2023-03-26T19:29:54.606Z,77.33
2023-03-26T19:33:13.046Z,77.37
2023-03-26T19:36:21.324Z,77.36
2023-03-26T19:39:24.269Z,77.60
2023-03-26T19:42:42.950Z,77.98
2023-03-26T19:45:37.784Z,77.91
2023-03-26T19:48:54.301Z,77.77
2023-03-26T19:51:52.362Z,77.74
2023-03-26T19:54:59.359Z,77.83
2023-03-26T19:57:34.875Z,77.88
2023-03-26T20:00:22.749Z,78.42
2023-03-26T20:03:16.749Z,78.43
2023-03-26T20:06:02.326Z,78.34
2023-03-26T20:08:56.203Z,78.47
2023-03-26T20:11:50.410Z,78.76
2023-03-26T20:14:45.473Z,79.00
2023-03-26T20:17:42.998Z,79.60
2023-03-26T20:20:27.550Z,79.64
2023-03-26T20:23:20.506Z,79.89
2023-03-26T20:26:16.518Z,79.99
2023-03-26T20:29:02.359Z,79.63
2023-03-26T20:31:56.522Z,79.57
2023-03-26T20:34:49.915Z,79.51
2023-03-26T20:37:43.189Z,79.76
2023-03-26T20:40:36.166Z,80.31
2023-03-26T20:43:30.350Z,80.46
2023-03-26T20:46:31.628Z,80.31
2023-03-26T20:49:25.284Z,80.38
2023-03-26T20:52:18.821Z,80.28
2023-03-26T20:55:06.319Z,80.60
2023-03-26T20:57:59.673Z,80.35
2023-03-26T21:00:53.151Z,80.47
2023-03-26T21:03:46.270Z,80.56
2023-03-26T21:06:28.992Z,80.65
2023-03-26T21:09:21.956Z,80.81
2023-03-26T21:12:25.968Z,81.00
2023-03-26T21:15:22.757Z,81.28
2023-03-26T21:18:15.766Z,81.40
2023-03-26T21:21:28.111Z,81.24
2023-03-26T21:24:33.507Z,81.45
2023-03-26T21:27:30.990Z,81.46
2023-03-26T21:30:26.055Z,81.56
2023-03-26T21:33:13.913Z,81.77
2023-03-26T21:36:07.869Z,81.64
2023-03-26T21:39:01.860Z,81.70
2023-03-26T21:42:04.845Z,81.60
2023-03-26T21:45:02.284Z,81.50
2023-03-26T21:47:46.689Z,81.36
2023-03-26T21:50:24.947Z,81.25
2023-03-26T21:53:18.977Z,81.33
2023-03-26T21:56:24.137Z,80.96
2023-03-26T21:59:27.790Z,80.89
2023-03-26T22:02:29.643Z,81.13
2023-03-26T22:05:26.081Z,81.47
2023-03-26T22:08:18.034Z,81.46
2023-03-26T22:11:12.749Z,81.35
2023-03-26T22:14:06.298Z,81.17
2023-03-26T22:16:49.141Z,81.15
2023-03-26T22:19:21.688Z,80.80
2023-03-26T22:22:00.283Z,80.90
2023-03-26T22:24:53.661Z,81.13
2023-03-26T22:27:46.810Z,81.07
2023-03-26T22:30:40.097Z,80.96
2023-03-26T22:33:18.053Z,81.00
2023-03-26T22:36:23.365Z,80.87
2023-03-26T22:39:17.293Z,80.72
2023-03-26T22:42:10.213Z,80.45
2023-03-26T22:45:05.388Z,80.15
2023-03-26T22:48:03.597Z,79.95
2023-03-26T22:50:47.871Z,79.73
2023-03-26T22:53:40.793Z,79.73
2023-03-26T22:56:33.544Z,79.80
2023-03-26T22:59:06.198Z,79.99
2023-03-26T23:01:59.267Z,79.96
2023-03-26T23:04:50.716Z,79.80
2023-03-26T23:07:28.686Z,80.07
2023-03-26T23:10:22.994Z,80.29
2023-03-26T23:13:15.859Z,80.29
2023-03-26T23:16:11.388Z,80.05
2023-03-26T23:19:04.475Z,80.27
2023-03-26T23:21:58.500Z,79.93
2023-03-26T23:24:37.901Z,80.19
2023-03-26T23:27:18.050Z,80.11
2023-03-26T23:30:17.965Z,80.33
2023-03-26T23:33:13.556Z,80.47
2023-03-26T23:35:47.534Z,80.57
2023-03-26T23:38:43.481Z,80.64
2023-03-26T23:41:37.111Z,80.77
2023-03-26T23:44:30.440Z,80.77
2023-03-26T23:47:03.379Z,80.99
2023-03-26T23:49:45.515Z,80.71
2023-03-26T23:52:38.789Z,80.85
2023-03-26T23:55:24.286Z,81.03
2023-03-26T23:58:07.174Z,81.12
